sensor_id;sensor_type;location;lat;lon;timestamp;P1;durP1;ratioP1;P2;durP2;ratioP2
81544;SDS011;70990;50.618;7.346;2024-03-08T00:00:10;15.50;;;6.18;;
81544;SDS011;70990;50.618;7.346;2024-03-08T00:02:39;16.33;;;6.70;;
81544;SDS011;70990;50.618;7.346;2024-03-08T00:05:06;16.80;;;6.30;;
81544;SDS011;70990;50.618;7.346;2024-03-08T00:07:34;18.73;;;6.85;;
81544;SDS011;70990;50.618;7.346;2024-03-08T00:10:01;16.13;;;6.60;;
81544;SDS011;70990;50.618;7.346;2024-03-08T00:12:32;13.88;;;6.00;;
81544;SDS011;70990;50.618;7.346;2024-03-08T00:14:58;15.98;;;6.15;;
81544;SDS011;70990;50.618;7.346;2024-03-08T00:17:25;16.20;;;6.20;;
81544;SDS011;70990;50.618;7.346;2024-03-08T00:19:51;13.82;;;5.82;;
81544;SDS011;70990;50.618;7.346;2024-03-08T00:22:18;15.50;;;6.85;;
81544;SDS011;70990;50.618;7.346;2024-03-08T00:24:45;16.63;;;6.63;;
81544;SDS011;70990;50.618;7.346;2024-03-08T00:27:13;14.55;;;5.47;;
81544;SDS011;70990;50.618;7.346;2024-03-08T00:29:40;15.52;;;6.03;;
81544;SDS011;70990;50.618;7.346;2024-03-08T00:32:06;15.48;;;6.10;;
81544;SDS011;70990;50.618;7.346;2024-03-08T00:34:35;15.57;;;6.00;;
81544;SDS011;70990;50.618;7.346;2024-03-08T00:37:03;14.88;;;6.07;;
81544;SDS011;70990;50.618;7.346;2024-03-08T00:39:30;15.70;;;6.35;;
81544;SDS011;70990;50.618;7.346;2024-03-08T00:41:56;15.45;;;6.47;;
81544;SDS011;70990;50.618;7.346;2024-03-08T00:44:23;11.30;;;5.30;;
81544;SDS011;70990;50.618;7.346;2024-03-08T00:46:50;16.63;;;7.07;;
81544;SDS011;70990;50.618;7.346;2024-03-08T00:49:20;14.50;;;6.25;;
81544;SDS011;70990;50.618;7.346;2024-03-08T00:51:46;15.23;;;6.40;;
81544;SDS011;70990;50.618;7.346;2024-03-08T00:54:13;13.68;;;6.05;;
81544;SDS011;70990;50.618;7.346;2024-03-08T00:56:39;16.50;;;6.57;;
81544;SDS011;70990;50.618;7.346;2024-03-08T00:59:06;16.02;;;6.10;;
81544;SDS011;70990;50.618;7.346;2024-03-08T01:01:33;12.25;;;5.65;;
81544;SDS011;70990;50.618;7.346;2024-03-08T01:03:59;13.95;;;5.65;;
81544;SDS011;70990;50.618;7.346;2024-03-08T01:06:26;12.80;;;6.15;;
81544;SDS011;70990;50.618;7.346;2024-03-08T01:08:53;15.18;;;6.45;;
81544;SDS011;70990;50.618;7.346;2024-03-08T01:11:19;14.48;;;6.63;;
81544;SDS011;70990;50.618;7.346;2024-03-08T01:13:46;15.65;;;6.00;;
81544;SDS011;70990;50.618;7.346;2024-03-08T01:16:13;13.05;;;5.25;;
81544;SDS011;70990;50.618;7.346;2024-03-08T01:18:42;12.70;;;6.38;;
81544;SDS011;70990;50.618;7.346;2024-03-08T01:21:10;18.42;;;7.50;;
81544;SDS011;70990;50.618;7.346;2024-03-08T01:23:36;16.23;;;6.63;;
81544;SDS011;70990;50.618;7.346;2024-03-08T01:26:03;13.95;;;6.10;;
81544;SDS011;70990;50.618;7.346;2024-03-08T01:28:30;13.48;;;4.85;;
81544;SDS011;70990;50.618;7.346;2024-03-08T01:30:57;17.60;;;6.85;;
81544;SDS011;70990;50.618;7.346;2024-03-08T01:33:24;16.30;;;7.10;;
81544;SDS011;70990;50.618;7.346;2024-03-08T01:35:52;20.35;;;7.60;;
81544;SDS011;70990;50.618;7.346;2024-03-08T01:38:19;19.45;;;6.53;;
81544;SDS011;70990;50.618;7.346;2024-03-08T01:40:46;11.93;;;5.47;;
81544;SDS011;70990;50.618;7.346;2024-03-08T01:45:47;17.17;;;6.93;;
81544;SDS011;70990;50.618;7.346;2024-03-08T01:48:14;13.82;;;5.55;;
81544;SDS011;70990;50.618;7.346;2024-03-08T01:50:41;9.60;;;4.03;;
81544;SDS011;70990;50.618;7.346;2024-03-08T01:53:08;13.75;;;5.85;;
81544;SDS011;70990;50.618;7.346;2024-03-08T01:55:36;17.88;;;7.00;;
81544;SDS011;70990;50.618;7.346;2024-03-08T01:58:03;15.75;;;6.97;;
81544;SDS011;70990;50.618;7.346;2024-03-08T02:00:32;14.60;;;6.38;;
81544;SDS011;70990;50.618;7.346;2024-03-08T02:03:00;20.92;;;6.68;;
81544;SDS011;70990;50.618;7.346;2024-03-08T02:05:28;14.90;;;6.50;;
81544;SDS011;70990;50.618;7.346;2024-03-08T02:07:54;13.98;;;5.72;;
81544;SDS011;70990;50.618;7.346;2024-03-08T02:10:21;18.73;;;7.13;;
81544;SDS011;70990;50.618;7.346;2024-03-08T02:12:49;13.82;;;5.93;;
81544;SDS011;70990;50.618;7.346;2024-03-08T02:15:17;17.45;;;7.47;;
81544;SDS011;70990;50.618;7.346;2024-03-08T02:17:44;16.98;;;6.93;;
81544;SDS011;70990;50.618;7.346;2024-03-08T02:20:11;18.00;;;6.53;;
81544;SDS011;70990;50.618;7.346;2024-03-08T02:22:37;18.67;;;6.50;;
81544;SDS011;70990;50.618;7.346;2024-03-08T02:25:04;13.02;;;5.35;;
81544;SDS011;70990;50.618;7.346;2024-03-08T02:27:32;13.68;;;6.25;;
81544;SDS011;70990;50.618;7.346;2024-03-08T02:29:59;11.13;;;5.18;;
81544;SDS011;70990;50.618;7.346;2024-03-08T02:32:25;17.45;;;7.47;;
81544;SDS011;70990;50.618;7.346;2024-03-08T02:34:56;11.32;;;5.72;;
81544;SDS011;70990;50.618;7.346;2024-03-08T02:37:23;15.30;;;6.35;;
81544;SDS011;70990;50.618;7.346;2024-03-08T02:39:49;17.00;;;7.30;;
81544;SDS011;70990;50.618;7.346;2024-03-08T02:42:16;16.25;;;6.45;;
81544;SDS011;70990;50.618;7.346;2024-03-08T02:44:43;17.05;;;6.95;;
81544;SDS011;70990;50.618;7.346;2024-03-08T02:47:10;14.07;;;6.00;;
81544;SDS011;70990;50.618;7.346;2024-03-08T02:49:36;16.23;;;6.57;;
81544;SDS011;70990;50.618;7.346;2024-03-08T02:52:03;16.83;;;7.22;;
81544;SDS011;70990;50.618;7.346;2024-03-08T02:54:30;16.23;;;7.28;;
81544;SDS011;70990;50.618;7.346;2024-03-08T02:56:57;19.30;;;6.18;;
81544;SDS011;70990;50.618;7.346;2024-03-08T02:59:24;15.15;;;6.35;;
81544;SDS011;70990;50.618;7.346;2024-03-08T03:01:50;9.75;;;4.82;;
81544;SDS011;70990;50.618;7.346;2024-03-08T03:04:17;14.68;;;5.88;;
81544;SDS011;70990;50.618;7.346;2024-03-08T03:06:43;17.10;;;6.38;;
81544;SDS011;70990;50.618;7.346;2024-03-08T03:09:10;18.65;;;8.05;;
81544;SDS011;70990;50.618;7.346;2024-03-08T03:11:37;18.00;;;6.47;;
81544;SDS011;70990;50.618;7.346;2024-03-08T03:14:04;21.67;;;7.07;;
81544;SDS011;70990;50.618;7.346;2024-03-08T03:16:30;20.85;;;6.68;;
81544;SDS011;70990;50.618;7.346;2024-03-08T03:18:57;19.20;;;6.18;;
81544;SDS011;70990;50.618;7.346;2024-03-08T03:21:24;15.45;;;6.40;;
81544;SDS011;70990;50.618;7.346;2024-03-08T03:23:50;19.90;;;7.40;;
81544;SDS011;70990;50.618;7.346;2024-03-08T03:26:17;18.95;;;7.10;;
81544;SDS011;70990;50.618;7.346;2024-03-08T03:28:44;16.70;;;6.72;;
81544;SDS011;70990;50.618;7.346;2024-03-08T03:31:10;14.82;;;5.90;;
81544;SDS011;70990;50.618;7.346;2024-03-08T03:33:37;17.42;;;6.72;;
81544;SDS011;70990;50.618;7.346;2024-03-08T03:36:04;12.38;;;5.32;;
81544;SDS011;70990;50.618;7.346;2024-03-08T03:38:31;17.02;;;7.28;;
81544;SDS011;70990;50.618;7.346;2024-03-08T03:40:57;14.80;;;6.70;;
81544;SDS011;70990;50.618;7.346;2024-03-08T03:43:28;16.52;;;5.57;;
81544;SDS011;70990;50.618;7.346;2024-03-08T03:45:54;13.63;;;4.22;;
81544;SDS011;70990;50.618;7.346;2024-03-08T03:48:21;16.67;;;7.20;;
81544;SDS011;70990;50.618;7.346;2024-03-08T03:50:48;14.10;;;6.20;;
81544;SDS011;70990;50.618;7.346;2024-03-08T03:53:14;21.27;;;7.75;;
81544;SDS011;70990;50.618;7.346;2024-03-08T03:55:41;20.33;;;7.30;;
81544;SDS011;70990;50.618;7.346;2024-03-08T03:58:08;14.23;;;5.57;;
81544;SDS011;70990;50.618;7.346;2024-03-08T04:00:35;21.27;;;8.02;;
81544;SDS011;70990;50.618;7.346;2024-03-08T04:03:02;15.93;;;7.00;;
81544;SDS011;70990;50.618;7.346;2024-03-08T04:05:28;17.25;;;7.20;;
81544;SDS011;70990;50.618;7.346;2024-03-08T04:07:55;19.38;;;6.78;;
81544;SDS011;70990;50.618;7.346;2024-03-08T04:10:22;17.45;;;7.43;;
81544;SDS011;70990;50.618;7.346;2024-03-08T04:12:48;14.60;;;5.47;;
81544;SDS011;70990;50.618;7.346;2024-03-08T04:15:15;14.82;;;6.70;;
81544;SDS011;70990;50.618;7.346;2024-03-08T04:17:42;12.57;;;5.55;;
81544;SDS011;70990;50.618;7.346;2024-03-08T04:20:09;12.45;;;5.22;;
81544;SDS011;70990;50.618;7.346;2024-03-08T04:22:38;17.15;;;7.05;;
81544;SDS011;70990;50.618;7.346;2024-03-08T04:25:05;13.45;;;6.32;;
81544;SDS011;70990;50.618;7.346;2024-03-08T04:27:33;15.00;;;6.30;;
81544;SDS011;70990;50.618;7.346;2024-03-08T04:30:00;17.23;;;7.35;;
81544;SDS011;70990;50.618;7.346;2024-03-08T04:32:27;17.80;;;6.95;;
81544;SDS011;70990;50.618;7.346;2024-03-08T04:34:54;16.08;;;7.75;;
81544;SDS011;70990;50.618;7.346;2024-03-08T04:37:20;15.73;;;6.50;;
81544;SDS011;70990;50.618;7.346;2024-03-08T04:39:47;19.55;;;7.03;;
81544;SDS011;70990;50.618;7.346;2024-03-08T04:42:14;18.25;;;7.15;;
81544;SDS011;70990;50.618;7.346;2024-03-08T04:44:42;16.42;;;6.85;;
81544;SDS011;70990;50.618;7.346;2024-03-08T04:47:10;14.68;;;5.70;;
81544;SDS011;70990;50.618;7.346;2024-03-08T04:49:36;15.82;;;5.57;;
81544;SDS011;70990;50.618;7.346;2024-03-08T04:52:03;16.40;;;6.90;;
81544;SDS011;70990;50.618;7.346;2024-03-08T04:54:33;21.23;;;6.85;;
81544;SDS011;70990;50.618;7.346;2024-03-08T04:57:00;18.20;;;7.30;;
81544;SDS011;70990;50.618;7.346;2024-03-08T04:59:28;17.15;;;7.00;;
81544;SDS011;70990;50.618;7.346;2024-03-08T05:01:54;19.65;;;7.10;;
81544;SDS011;70990;50.618;7.346;2024-03-08T05:04:21;18.33;;;7.57;;
81544;SDS011;70990;50.618;7.346;2024-03-08T05:06:48;19.10;;;6.97;;
81544;SDS011;70990;50.618;7.346;2024-03-08T05:09:14;19.00;;;7.35;;
81544;SDS011;70990;50.618;7.346;2024-03-08T05:11:42;17.50;;;7.40;;
81544;SDS011;70990;50.618;7.346;2024-03-08T05:14:09;20.77;;;7.45;;
81544;SDS011;70990;50.618;7.346;2024-03-08T05:16:37;19.33;;;7.00;;
81544;SDS011;70990;50.618;7.346;2024-03-08T05:19:03;17.50;;;6.10;;
81544;SDS011;70990;50.618;7.346;2024-03-08T05:21:30;19.48;;;7.15;;
81544;SDS011;70990;50.618;7.346;2024-03-08T05:23:57;19.90;;;7.60;;
81544;SDS011;70990;50.618;7.346;2024-03-08T05:26:23;16.05;;;6.55;;
81544;SDS011;70990;50.618;7.346;2024-03-08T05:28:50;17.15;;;7.50;;
81544;SDS011;70990;50.618;7.346;2024-03-08T05:31:20;16.65;;;6.93;;
81544;SDS011;70990;50.618;7.346;2024-03-08T05:33:47;15.93;;;7.20;;
81544;SDS011;70990;50.618;7.346;2024-03-08T05:36:14;13.20;;;5.68;;
81544;SDS011;70990;50.618;7.346;2024-03-08T05:38:41;16.17;;;5.20;;
81544;SDS011;70990;50.618;7.346;2024-03-08T05:41:07;19.00;;;6.72;;
81544;SDS011;70990;50.618;7.346;2024-03-08T05:43:34;19.92;;;7.93;;
81544;SDS011;70990;50.618;7.346;2024-03-08T05:46:00;20.02;;;7.43;;
81544;SDS011;70990;50.618;7.346;2024-03-08T05:48:27;19.52;;;7.22;;
81544;SDS011;70990;50.618;7.346;2024-03-08T05:50:53;16.13;;;6.32;;
81544;SDS011;70990;50.618;7.346;2024-03-08T05:53:20;18.02;;;6.57;;
81544;SDS011;70990;50.618;7.346;2024-03-08T05:55:47;17.92;;;7.78;;
81544;SDS011;70990;50.618;7.346;2024-03-08T05:58:13;11.35;;;5.20;;
81544;SDS011;70990;50.618;7.346;2024-03-08T06:00:40;24.25;;;7.53;;
81544;SDS011;70990;50.618;7.346;2024-03-08T06:03:07;14.35;;;5.93;;
81544;SDS011;70990;50.618;7.346;2024-03-08T06:05:33;17.00;;;6.78;;
81544;SDS011;70990;50.618;7.346;2024-03-08T06:08:00;14.05;;;5.25;;
81544;SDS011;70990;50.618;7.346;2024-03-08T06:10:27;14.00;;;5.53;;
81544;SDS011;70990;50.618;7.346;2024-03-08T06:12:53;17.73;;;5.88;;
81544;SDS011;70990;50.618;7.346;2024-03-08T06:15:20;18.55;;;7.18;;
81544;SDS011;70990;50.618;7.346;2024-03-08T06:17:47;21.67;;;8.32;;
81544;SDS011;70990;50.618;7.346;2024-03-08T06:20:13;18.83;;;6.32;;
81544;SDS011;70990;50.618;7.346;2024-03-08T06:22:40;18.30;;;6.43;;
81544;SDS011;70990;50.618;7.346;2024-03-08T06:25:10;17.45;;;7.68;;
81544;SDS011;70990;50.618;7.346;2024-03-08T06:27:38;19.63;;;7.43;;
81544;SDS011;70990;50.618;7.346;2024-03-08T06:30:05;15.43;;;7.05;;
81544;SDS011;70990;50.618;7.346;2024-03-08T06:32:33;15.60;;;7.78;;
81544;SDS011;70990;50.618;7.346;2024-03-08T06:35:00;20.30;;;6.93;;
81544;SDS011;70990;50.618;7.346;2024-03-08T06:37:26;17.52;;;7.18;;
81544;SDS011;70990;50.618;7.346;2024-03-08T06:39:53;18.88;;;7.53;;
81544;SDS011;70990;50.618;7.346;2024-03-08T06:42:19;17.77;;;6.78;;
81544;SDS011;70990;50.618;7.346;2024-03-08T06:44:46;18.45;;;7.45;;
81544;SDS011;70990;50.618;7.346;2024-03-08T06:47:13;21.55;;;7.25;;
81544;SDS011;70990;50.618;7.346;2024-03-08T06:49:39;17.90;;;7.75;;
81544;SDS011;70990;50.618;7.346;2024-03-08T06:52:06;13.48;;;5.82;;
81544;SDS011;70990;50.618;7.346;2024-03-08T06:54:33;12.50;;;5.35;;
81544;SDS011;70990;50.618;7.346;2024-03-08T06:57:00;15.55;;;6.70;;
81544;SDS011;70990;50.618;7.346;2024-03-08T06:59:27;19.50;;;7.63;;
81544;SDS011;70990;50.618;7.346;2024-03-08T07:01:53;14.48;;;6.28;;
81544;SDS011;70990;50.618;7.346;2024-03-08T07:04:20;16.33;;;6.78;;
81544;SDS011;70990;50.618;7.346;2024-03-08T07:06:47;12.38;;;4.93;;
81544;SDS011;70990;50.618;7.346;2024-03-08T07:09:14;15.68;;;6.78;;
81544;SDS011;70990;50.618;7.346;2024-03-08T07:11:40;19.95;;;7.85;;
81544;SDS011;70990;50.618;7.346;2024-03-08T07:14:10;17.48;;;7.45;;
81544;SDS011;70990;50.618;7.346;2024-03-08T07:16:37;16.80;;;5.82;;
81544;SDS011;70990;50.618;7.346;2024-03-08T07:19:04;20.23;;;7.03;;
81544;SDS011;70990;50.618;7.346;2024-03-08T07:21:32;17.92;;;6.70;;
81544;SDS011;70990;50.618;7.346;2024-03-08T07:23:58;14.10;;;6.78;;
81544;SDS011;70990;50.618;7.346;2024-03-08T07:26:25;18.83;;;6.72;;
81544;SDS011;70990;50.618;7.346;2024-03-08T07:28:55;12.30;;;5.75;;
81544;SDS011;70990;50.618;7.346;2024-03-08T07:31:25;13.18;;;6.03;;
81544;SDS011;70990;50.618;7.346;2024-03-08T07:33:54;16.92;;;7.07;;
81544;SDS011;70990;50.618;7.346;2024-03-08T07:36:21;21.35;;;6.82;;
81544;SDS011;70990;50.618;7.346;2024-03-08T07:38:48;19.23;;;7.13;;
81544;SDS011;70990;50.618;7.346;2024-03-08T07:41:15;17.13;;;7.40;;
81544;SDS011;70990;50.618;7.346;2024-03-08T07:43:41;16.40;;;6.80;;
81544;SDS011;70990;50.618;7.346;2024-03-08T07:46:09;15.40;;;7.22;;
81544;SDS011;70990;50.618;7.346;2024-03-08T07:48:36;19.63;;;7.45;;
81544;SDS011;70990;50.618;7.346;2024-03-08T07:51:03;16.88;;;7.22;;
81544;SDS011;70990;50.618;7.346;2024-03-08T07:53:30;21.42;;;7.50;;
81544;SDS011;70990;50.618;7.346;2024-03-08T07:55:56;15.75;;;7.32;;
81544;SDS011;70990;50.618;7.346;2024-03-08T07:58:23;18.42;;;7.88;;
81544;SDS011;70990;50.618;7.346;2024-03-08T08:00:50;20.33;;;8.25;;
81544;SDS011;70990;50.618;7.346;2024-03-08T08:03:16;16.30;;;5.97;;
81544;SDS011;70990;50.618;7.346;2024-03-08T08:05:43;16.40;;;8.20;;
81544;SDS011;70990;50.618;7.346;2024-03-08T08:08:09;19.60;;;7.53;;
81544;SDS011;70990;50.618;7.346;2024-03-08T08:10:36;17.42;;;7.15;;
81544;SDS011;70990;50.618;7.346;2024-03-08T08:13:04;17.08;;;7.80;;
81544;SDS011;70990;50.618;7.346;2024-03-08T08:15:31;19.15;;;6.28;;
81544;SDS011;70990;50.618;7.346;2024-03-08T08:17:58;16.42;;;6.57;;
81544;SDS011;70990;50.618;7.346;2024-03-08T08:20:24;14.90;;;6.15;;
81544;SDS011;70990;50.618;7.346;2024-03-08T08:22:51;16.27;;;7.22;;
81544;SDS011;70990;50.618;7.346;2024-03-08T08:25:18;22.73;;;7.88;;
81544;SDS011;70990;50.618;7.346;2024-03-08T08:27:44;16.75;;;7.60;;
81544;SDS011;70990;50.618;7.346;2024-03-08T08:30:11;13.52;;;6.25;;
81544;SDS011;70990;50.618;7.346;2024-03-08T08:32:38;15.15;;;6.35;;
81544;SDS011;70990;50.618;7.346;2024-03-08T08:35:05;20.73;;;7.45;;
81544;SDS011;70990;50.618;7.346;2024-03-08T08:37:32;18.75;;;6.78;;
81544;SDS011;70990;50.618;7.346;2024-03-08T08:39:59;12.50;;;4.78;;
81544;SDS011;70990;50.618;7.346;2024-03-08T08:42:25;18.90;;;7.38;;
81544;SDS011;70990;50.618;7.346;2024-03-08T08:44:52;18.40;;;6.68;;
81544;SDS011;70990;50.618;7.346;2024-03-08T08:47:21;16.23;;;7.70;;
81544;SDS011;70990;50.618;7.346;2024-03-08T08:49:48;22.45;;;8.30;;
81544;SDS011;70990;50.618;7.346;2024-03-08T08:52:15;12.68;;;5.43;;
81544;SDS011;70990;50.618;7.346;2024-03-08T08:54:43;17.25;;;6.65;;
81544;SDS011;70990;50.618;7.346;2024-03-08T08:57:09;14.60;;;6.78;;
81544;SDS011;70990;50.618;7.346;2024-03-08T08:59:36;14.88;;;6.18;;
81544;SDS011;70990;50.618;7.346;2024-03-08T09:02:03;16.13;;;6.60;;
81544;SDS011;70990;50.618;7.346;2024-03-08T09:04:30;14.43;;;5.05;;
81544;SDS011;70990;50.618;7.346;2024-03-08T09:06:57;16.17;;;7.03;;
81544;SDS011;70990;50.618;7.346;2024-03-08T09:09:23;12.60;;;6.10;;
81544;SDS011;70990;50.618;7.346;2024-03-08T09:11:50;19.75;;;6.93;;
81544;SDS011;70990;50.618;7.346;2024-03-08T09:14:17;11.23;;;6.05;;
81544;SDS011;70990;50.618;7.346;2024-03-08T09:16:43;14.80;;;6.65;;
81544;SDS011;70990;50.618;7.346;2024-03-08T09:19:10;18.17;;;7.28;;
81544;SDS011;70990;50.618;7.346;2024-03-08T09:21:37;9.98;;;4.57;;
81544;SDS011;70990;50.618;7.346;2024-03-08T09:24:03;13.00;;;6.03;;
81544;SDS011;70990;50.618;7.346;2024-03-08T09:26:30;15.48;;;6.47;;
81544;SDS011;70990;50.618;7.346;2024-03-08T09:28:57;14.55;;;6.35;;
81544;SDS011;70990;50.618;7.346;2024-03-08T09:31:23;12.70;;;5.35;;
81544;SDS011;70990;50.618;7.346;2024-03-08T09:33:50;15.93;;;6.50;;
81544;SDS011;70990;50.618;7.346;2024-03-08T09:36:17;12.18;;;5.75;;
81544;SDS011;70990;50.618;7.346;2024-03-08T09:38:43;12.52;;;5.70;;
81544;SDS011;70990;50.618;7.346;2024-03-08T09:41:10;16.90;;;6.75;;
81544;SDS011;70990;50.618;7.346;2024-03-08T09:43:36;12.80;;;6.25;;
81544;SDS011;70990;50.618;7.346;2024-03-08T09:46:03;11.63;;;5.50;;
81544;SDS011;70990;50.618;7.346;2024-03-08T09:48:30;12.20;;;5.28;;
81544;SDS011;70990;50.618;7.346;2024-03-08T09:50:57;14.80;;;5.93;;
81544;SDS011;70990;50.618;7.346;2024-03-08T09:53:23;13.75;;;5.85;;
81544;SDS011;70990;50.618;7.346;2024-03-08T09:55:50;12.80;;;6.47;;
81544;SDS011;70990;50.618;7.346;2024-03-08T09:58:16;11.18;;;5.03;;
81544;SDS011;70990;50.618;7.346;2024-03-08T10:00:43;11.07;;;5.68;;
81544;SDS011;70990;50.618;7.346;2024-03-08T10:03:10;11.18;;;4.93;;
81544;SDS011;70990;50.618;7.346;2024-03-08T10:05:43;13.50;;;6.47;;
81544;SDS011;70990;50.618;7.346;2024-03-08T10:08:09;14.15;;;5.55;;
81544;SDS011;70990;50.618;7.346;2024-03-08T10:10:36;16.55;;;6.80;;
81544;SDS011;70990;50.618;7.346;2024-03-08T10:13:06;10.00;;;4.38;;
81544;SDS011;70990;50.618;7.346;2024-03-08T10:15:34;11.25;;;4.68;;
81544;SDS011;70990;50.618;7.346;2024-03-08T10:18:01;10.27;;;4.15;;
81544;SDS011;70990;50.618;7.346;2024-03-08T10:20:31;12.35;;;5.85;;
81544;SDS011;70990;50.618;7.346;2024-03-08T10:22:57;12.40;;;5.78;;
81544;SDS011;70990;50.618;7.346;2024-03-08T10:25:36;12.68;;;5.75;;
81544;SDS011;70990;50.618;7.346;2024-03-08T10:28:03;14.50;;;6.10;;
81544;SDS011;70990;50.618;7.346;2024-03-08T10:30:30;11.75;;;4.95;;
81544;SDS011;70990;50.618;7.346;2024-03-08T10:32:57;13.07;;;5.95;;
81544;SDS011;70990;50.618;7.346;2024-03-08T10:35:24;8.73;;;3.80;;
81544;SDS011;70990;50.618;7.346;2024-03-08T10:37:51;10.27;;;4.82;;
81544;SDS011;70990;50.618;7.346;2024-03-08T10:40:18;10.23;;;4.45;;
81544;SDS011;70990;50.618;7.346;2024-03-08T10:42:53;12.00;;;5.30;;
81544;SDS011;70990;50.618;7.346;2024-03-08T10:45:30;13.15;;;4.82;;
81544;SDS011;70990;50.618;7.346;2024-03-08T10:50:35;14.10;;;6.25;;
81544;SDS011;70990;50.618;7.346;2024-03-08T10:53:04;10.45;;;4.88;;
81544;SDS011;70990;50.618;7.346;2024-03-08T10:55:33;14.05;;;5.45;;
81544;SDS011;70990;50.618;7.346;2024-03-08T10:57:59;13.65;;;5.25;;
81544;SDS011;70990;50.618;7.346;2024-03-08T11:00:26;11.25;;;5.00;;
81544;SDS011;70990;50.618;7.346;2024-03-08T11:02:53;12.88;;;4.80;;
81544;SDS011;70990;50.618;7.346;2024-03-08T11:05:39;10.90;;;4.40;;
81544;SDS011;70990;50.618;7.346;2024-03-08T11:11:23;10.93;;;3.90;;
81544;SDS011;70990;50.618;7.346;2024-03-08T11:13:50;9.05;;;3.75;;
81544;SDS011;70990;50.618;7.346;2024-03-08T11:18:57;10.75;;;4.38;;
81544;SDS011;70990;50.618;7.346;2024-03-08T11:21:25;10.18;;;4.97;;
81544;SDS011;70990;50.618;7.346;2024-03-08T11:26:34;12.68;;;5.13;;
81544;SDS011;70990;50.618;7.346;2024-03-08T11:34:35;10.35;;;5.20;;
81544;SDS011;70990;50.618;7.346;2024-03-08T11:37:05;13.02;;;5.53;;
81544;SDS011;70990;50.618;7.346;2024-03-08T11:39:36;9.98;;;4.13;;
81544;SDS011;70990;50.618;7.346;2024-03-08T11:42:03;13.50;;;5.22;;
81544;SDS011;70990;50.618;7.346;2024-03-08T11:44:30;7.05;;;2.83;;
81544;SDS011;70990;50.618;7.346;2024-03-08T11:46:56;12.25;;;5.70;;
81544;SDS011;70990;50.618;7.346;2024-03-08T11:49:23;12.55;;;5.22;;
81544;SDS011;70990;50.618;7.346;2024-03-08T11:51:52;12.75;;;4.85;;
81544;SDS011;70990;50.618;7.346;2024-03-08T11:54:19;12.15;;;5.47;;
81544;SDS011;70990;50.618;7.346;2024-03-08T11:56:46;11.48;;;4.95;;
81544;SDS011;70990;50.618;7.346;2024-03-08T11:59:12;11.45;;;5.60;;
81544;SDS011;70990;50.618;7.346;2024-03-08T12:01:39;10.50;;;4.63;;
81544;SDS011;70990;50.618;7.346;2024-03-08T12:04:05;11.93;;;4.70;;
81544;SDS011;70990;50.618;7.346;2024-03-08T12:06:38;11.90;;;5.53;;
81544;SDS011;70990;50.618;7.346;2024-03-08T12:09:09;11.13;;;5.43;;
81544;SDS011;70990;50.618;7.346;2024-03-08T12:11:39;10.15;;;4.60;;
81544;SDS011;70990;50.618;7.346;2024-03-08T12:14:06;10.23;;;4.50;;
81544;SDS011;70990;50.618;7.346;2024-03-08T12:16:33;10.70;;;4.90;;
81544;SDS011;70990;50.618;7.346;2024-03-08T12:18:59;9.98;;;4.38;;
81544;SDS011;70990;50.618;7.346;2024-03-08T12:21:27;10.52;;;4.82;;
81544;SDS011;70990;50.618;7.346;2024-03-08T12:24:06;10.73;;;4.80;;
81544;SDS011;70990;50.618;7.346;2024-03-08T12:26:35;9.98;;;4.85;;
81544;SDS011;70990;50.618;7.346;2024-03-08T12:29:18;8.63;;;4.07;;
81544;SDS011;70990;50.618;7.346;2024-03-08T12:31:51;10.68;;;4.95;;
81544;SDS011;70990;50.618;7.346;2024-03-08T12:34:19;9.07;;;4.07;;
81544;SDS011;70990;50.618;7.346;2024-03-08T12:36:46;10.65;;;4.40;;
81544;SDS011;70990;50.618;7.346;2024-03-08T12:39:15;18.90;;;5.68;;
81544;SDS011;70990;50.618;7.346;2024-03-08T12:41:43;12.10;;;4.82;;
81544;SDS011;70990;50.618;7.346;2024-03-08T12:44:10;13.52;;;5.55;;
81544;SDS011;70990;50.618;7.346;2024-03-08T12:46:37;12.93;;;4.18;;
81544;SDS011;70990;50.618;7.346;2024-03-08T12:49:04;9.38;;;4.07;;
81544;SDS011;70990;50.618;7.346;2024-03-08T12:51:31;12.63;;;5.28;;
81544;SDS011;70990;50.618;7.346;2024-03-08T12:53:57;12.68;;;4.68;;
81544;SDS011;70990;50.618;7.346;2024-03-08T12:56:33;11.18;;;5.00;;
81544;SDS011;70990;50.618;7.346;2024-03-08T12:59:01;11.95;;;4.72;;
81544;SDS011;70990;50.618;7.346;2024-03-08T13:01:28;9.77;;;4.13;;
81544;SDS011;70990;50.618;7.346;2024-03-08T13:03:57;10.85;;;4.93;;
81544;SDS011;70990;50.618;7.346;2024-03-08T13:06:24;13.40;;;5.05;;
81544;SDS011;70990;50.618;7.346;2024-03-08T13:08:51;8.75;;;4.60;;
81544;SDS011;70990;50.618;7.346;2024-03-08T13:11:18;12.20;;;4.93;;
81544;SDS011;70990;50.618;7.346;2024-03-08T13:13:46;11.10;;;4.45;;
81544;SDS011;70990;50.618;7.346;2024-03-08T13:16:13;9.20;;;3.83;;
81544;SDS011;70990;50.618;7.346;2024-03-08T13:18:43;12.52;;;5.20;;
81544;SDS011;70990;50.618;7.346;2024-03-08T13:21:10;11.13;;;5.15;;
81544;SDS011;70990;50.618;7.346;2024-03-08T13:23:37;10.52;;;4.88;;
81544;SDS011;70990;50.618;7.346;2024-03-08T13:26:05;11.15;;;4.85;;
81544;SDS011;70990;50.618;7.346;2024-03-08T13:28:35;10.88;;;5.28;;
81544;SDS011;70990;50.618;7.346;2024-03-08T13:31:03;11.05;;;5.07;;
81544;SDS011;70990;50.618;7.346;2024-03-08T13:33:30;8.30;;;4.00;;
81544;SDS011;70990;50.618;7.346;2024-03-08T13:35:56;10.20;;;4.65;;
81544;SDS011;70990;50.618;7.346;2024-03-08T13:38:30;11.65;;;4.63;;
81544;SDS011;70990;50.618;7.346;2024-03-08T13:40:57;9.35;;;4.63;;
81544;SDS011;70990;50.618;7.346;2024-03-08T13:43:24;9.77;;;4.95;;
81544;SDS011;70990;50.618;7.346;2024-03-08T13:45:51;13.40;;;4.35;;
81544;SDS011;70990;50.618;7.346;2024-03-08T13:48:17;10.80;;;4.57;;
81544;SDS011;70990;50.618;7.346;2024-03-08T13:50:46;9.52;;;4.55;;
81544;SDS011;70990;50.618;7.346;2024-03-08T13:53:13;12.85;;;5.93;;
81544;SDS011;70990;50.618;7.346;2024-03-08T13:55:39;10.95;;;4.32;;
81544;SDS011;70990;50.618;7.346;2024-03-08T13:58:06;10.25;;;3.95;;
81544;SDS011;70990;50.618;7.346;2024-03-08T14:00:33;13.27;;;5.55;;
81544;SDS011;70990;50.618;7.346;2024-03-08T14:03:00;10.98;;;4.70;;
81544;SDS011;70990;50.618;7.346;2024-03-08T14:05:26;12.18;;;4.78;;
81544;SDS011;70990;50.618;7.346;2024-03-08T14:07:53;9.65;;;4.70;;
81544;SDS011;70990;50.618;7.346;2024-03-08T14:10:20;11.18;;;4.85;;
81544;SDS011;70990;50.618;7.346;2024-03-08T14:12:47;11.55;;;4.78;;
81544;SDS011;70990;50.618;7.346;2024-03-08T14:15:14;10.82;;;4.28;;
81544;SDS011;70990;50.618;7.346;2024-03-08T14:17:40;9.35;;;4.75;;
81544;SDS011;70990;50.618;7.346;2024-03-08T14:20:07;10.82;;;4.53;;
81544;SDS011;70990;50.618;7.346;2024-03-08T14:22:35;10.70;;;4.53;;
81544;SDS011;70990;50.618;7.346;2024-03-08T14:25:01;8.73;;;4.07;;
81544;SDS011;70990;50.618;7.346;2024-03-08T14:27:31;9.50;;;4.15;;
81544;SDS011;70990;50.618;7.346;2024-03-08T14:29:57;11.70;;;3.92;;
81544;SDS011;70990;50.618;7.346;2024-03-08T14:32:24;12.35;;;5.03;;
81544;SDS011;70990;50.618;7.346;2024-03-08T14:34:51;10.90;;;4.20;;
81544;SDS011;70990;50.618;7.346;2024-03-08T14:37:18;10.50;;;5.47;;
81544;SDS011;70990;50.618;7.346;2024-03-08T14:39:45;8.65;;;3.95;;
81544;SDS011;70990;50.618;7.346;2024-03-08T14:42:11;11.90;;;4.93;;
81544;SDS011;70990;50.618;7.346;2024-03-08T14:44:38;12.70;;;5.38;;
81544;SDS011;70990;50.618;7.346;2024-03-08T14:47:05;12.35;;;5.32;;
81544;SDS011;70990;50.618;7.346;2024-03-08T14:49:32;10.43;;;4.97;;
81544;SDS011;70990;50.618;7.346;2024-03-08T14:51:58;10.05;;;4.03;;
81544;SDS011;70990;50.618;7.346;2024-03-08T14:54:25;12.88;;;5.15;;